Time;durP1;ratioP1;P1;durP2;ratioP2;P2;SDS_P1;SDS_P2;PMS_P1;PMS_P2;Temp;Humidity;BMP_temperature;BMP_pressure;BME280_temperature;BME280_humidity;BME280_pressure;Samples;Min_cycle;Max_cycle;Signal;HPM_P1;HPM_P2
2021/12/14 00:00:43;;;;;;;3.88;1.83;;;;;;;8.54;68.38;102313.19;5060114;28;20532;-84
2021/12/14 00:03:10;;;;;;;5.68;2.00;;;;;;;8.60;68.11;102313.25;5021039;28;20045;-84
2021/12/14 00:05:36;;;;;;;3.58;1.88;;;;;;;8.59;68.21;102313.25;5059897;28;20085;-84
2021/12/14 00:08:04;;;;;;;3.55;1.60;;;;;;;8.46;69.12;102312.22;5049756;28;20090;-85
2021/12/14 00:13:22;;;;;;;2.53;1.48;;;;;;;8.41;69.53;102310.44;5057328;28;20498;-85
2021/12/14 00:15:48;;;;;;;;;;;;;;;8.39;69.39;102307.81;5049468;28;20056;-85
2021/12/14 00:18:14;;;;;;;4.22;1.38;;;;;;;8.37;69.36;102308.66;5051357;28;19916;-84
2021/12/14 00:20:50;;;;;;;3.33;1.75;;;;;;;8.35;70.22;102298.28;5054602;28;20056;-85
2021/12/14 00:25:49;;;;;;;3.88;1.70;;;;;;;8.50;68.67;102298.50;5056315;28;20041;-85
2021/12/14 00:28:23;;;;;;;3.13;2.17;;;;;;;8.39;69.86;102299.19;5049881;28;20593;-85
2021/12/14 00:30:51;;;;;;;3.22;1.60;;;;;;;8.42;69.51;102302.69;5048733;28;20847;-85
2021/12/14 00:33:20;;;;;;;4.90;1.83;;;;;;;8.57;68.44;102296.81;5065507;28;20520;-85
2021/12/14 00:35:48;;;;;;;3.22;2.00;;;;;;;8.42;68.17;102300.09;5055344;28;20033;-85
2021/12/14 00:38:17;;;;;;;2.70;1.52;;;;;;;8.43;69.57;102299.25;5058045;28;20056;-85
2021/12/14 00:40:48;;;;;;;2.92;1.60;;;;;;;8.53;68.42;102302.81;5059924;28;20485;-85
2021/12/14 00:43:13;;;;;;;2.65;1.40;;;;;;;8.51;67.80;102301.91;5049467;28;20055;-85
2021/12/14 00:45:42;;;;;;;4.30;1.40;;;;;;;8.55;67.89;102299.41;5052727;28;20037;-85
2021/12/14 00:48:09;;;;;;;2.53;1.42;;;;;;;8.61;67.74;102290.81;5056753;28;20048;-84
2021/12/14 00:50:35;;;;;;;3.38;1.50;;;;;;;8.51;68.26;102291.56;5039774;28;20538;-85
2021/12/14 00:53:01;;;;;;;4.03;1.40;;;;;;;8.49;67.37;102298.44;5052521;28;20449;-84
2021/12/14 00:55:33;;;;;;;2.47;1.45;;;;;;;8.55;68.42;102301.13;5055578;28;20054;-85
2021/12/14 00:57:59;;;;;;;4.68;1.52;;;;;;;8.53;68.65;102302.81;5052919;28;20371;-85
2021/12/14 01:00:29;;;;;;;3.67;1.35;;;;;;;8.53;69.11;102308.88;5054651;28;20029;-84
2021/12/14 01:02:55;;;;;;;3.85;1.67;;;;;;;8.38;69.89;102295.75;5051502;28;20029;-84
2021/12/14 01:05:42;;;;;;;3.13;1.42;;;;;;;8.41;69.21;102290.59;5050182;28;20544;-85
2021/12/14 01:08:12;;;;;;;3.92;1.52;;;;;;;8.55;68.29;102282.97;5048071;28;20065;-85
2021/12/14 01:10:47;;;;;;;3.08;1.50;;;;;;;8.46;68.73;102282.88;5042262;28;20158;-84
2021/12/14 01:13:13;;;;;;;3.50;2.03;;;;;;;8.47;68.43;102290.69;5051808;28;20040;-85
2021/12/14 01:18:32;;;;;;;4.00;2.03;;;;;;;8.50;68.31;102284.66;5054768;28;20044;-84
2021/12/14 01:21:18;;;;;;;4.13;2.22;;;;;;;8.48;69.12;102275.97;5056042;28;20051;-84
2021/12/14 01:23:45;;;;;;;3.22;1.25;;;;;;;8.43;69.66;102277.66;5051781;28;20030;-84
2021/12/14 01:26:17;;;;;;;3.75;1.75;;;;;;;8.54;68.65;102276.94;5047518;28;20033;-85
2021/12/14 01:28:44;;;;;;;3.85;1.63;;;;;;;8.58;67.48;102276.13;5052267;28;20040;-85
2021/12/14 01:31:26;;;;;;;5.45;2.47;;;;;;;8.52;68.42;102278.66;5049054;28;20132;-84
2021/12/14 01:33:56;;;;;;;5.07;2.25;;;;;;;8.47;68.86;102279.44;5056308;28;20045;-84
2021/12/14 01:41:54;;;;;;;4.20;2.25;;;;;;;8.39;69.83;102299.19;5015025;28;20036;-85
2021/12/14 01:44:19;;;;;;;3.15;2.03;;;;;;;8.41;69.79;102295.78;5058580;28;20044;-84
2021/12/14 01:46:53;;;;;;;3.78;1.88;;;;;;;8.34;70.76;102298.25;5056381;28;20478;-85
2021/12/14 01:49:19;;;;;;;4.35;1.83;;;;;;;8.46;69.63;102296.69;5072461;28;20489;-84
2021/12/14 01:51:49;;;;;;;2.75;1.77;;;;;;;8.43;70.00;102288.91;5051398;28;20029;-85
2021/12/14 01:54:17;;;;;;;5.53;1.65;;;;;;;8.53;68.94;102264.84;5051758;28;20033;-84
2021/12/14 01:56:43;;;;;;;2.53;1.40;;;;;;;8.48;68.57;102269.09;5054308;28;20166;-85
2021/12/14 01:59:14;;;;;;;4.22;1.65;;;;;;;8.44;68.63;102274.22;5054973;28;20444;-84
2021/12/14 02:01:56;;;;;;;4.45;1.92;;;;;;;8.44;68.59;102277.69;5059918;28;20033;-84
2021/12/14 02:04:26;;;;;;;3.97;1.67;;;;;;;8.41;69.16;102282.84;5054522;28;20025;-84
2021/12/14 02:06:58;;;;;;;4.00;1.92;;;;;;;8.39;69.66;102294.00;5053389;28;20044;-85
2021/12/14 02:09:28;;;;;;;5.03;1.70;;;;;;;8.36;70.14;102305.19;5053756;28;20029;-84
2021/12/14 02:11:58;;;;;;;5.50;2.28;;;;;;;8.37;69.81;102303.47;5064741;28;20020;-84
2021/12/14 02:14:25;;;;;;;3.50;1.98;;;;;;;8.32;70.05;102300.81;5052583;28;20501;-84
2021/12/14 02:16:54;;;;;;;5.28;1.73;;;;;;;8.42;69.97;102294.91;5056443;28;20040;-84
2021/12/14 02:19:20;;;;;;;3.30;1.75;;;;;;;8.41;70.94;102292.31;5049871;28;20036;-85
2021/12/14 02:21:49;;;;;;;3.22;1.73;;;;;;;8.45;70.39;102281.13;5051774;28;20032;-84
2021/12/14 02:24:21;;;;;;;5.70;2.08;;;;;;;8.46;69.08;102272.50;5062955;28;20033;-84
2021/12/14 02:26:48;;;;;;;4.20;2.28;;;;;;;8.40;69.23;102277.63;5057879;28;20021;-84
2021/12/14 02:29:32;;;;;;;2.78;1.58;;;;;;;8.47;68.88;102267.38;5055600;28;20162;-84
2021/12/14 02:32:07;;;;;;;3.45;2.13;;;;;;;8.52;69.46;102264.81;5058988;28;20037;-84
2021/12/14 02:34:39;;;;;;;3.10;1.60;;;;;;;8.42;69.20;102260.38;5055147;28;20048;-85
2021/12/14 02:37:05;;;;;;;3.33;1.75;;;;;;;8.30;69.84;102268.84;5054014;28;20037;-84
2021/12/14 02:42:03;;;;;;;3.10;1.83;;;;;;;8.53;68.90;102259.66;5055586;28;20044;-84
2021/12/14 02:44:30;;;;;;;4.38;2.10;;;;;;;8.43;68.93;102260.41;5064019;28;20029;-85
2021/12/14 02:47:01;;;;;;;5.60;2.30;;;;;;;8.42;69.79;102263.84;5052849;28;20059;-85
2021/12/14 02:49:31;;;;;;;5.63;2.75;;;;;;;8.58;69.29;102262.28;5052409;28;20041;-84
2021/12/14 02:52:02;;;;;;;4.93;2.28;;;;;;;8.51;68.91;102255.28;5039207;28;20048;-84
2021/12/14 02:54:32;;;;;;;5.07;2.83;;;;;;;8.48;69.28;102263.03;5058990;28;20056;-84
2021/12/14 02:57:03;;;;;;;4.65;2.28;;;;;;;8.58;68.25;102252.81;5057673;28;20094;-84
2021/12/14 02:59:31;;;;;;;3.97;1.95;;;;;;;8.50;69.18;102249.28;5060434;28;20024;-84
2021/12/14 03:02:03;;;;;;;4.53;2.28;;;;;;;8.52;69.79;102251.88;5050366;28;20044;-84
2021/12/14 03:04:29;;;;;;;3.90;2.10;;;;;;;8.52;69.09;102238.91;5059659;28;20092;-85
2021/12/14 03:06:59;;;;;;;4.35;2.33;;;;;;;8.61;68.55;102241.63;5054191;28;20043;-84
2021/12/14 03:09:38;;;;;;;3.85;2.30;;;;;;;8.62;68.98;102243.34;5056308;28;20036;-84
2021/12/14 03:12:24;;;;;;;4.70;2.63;;;;;;;8.60;69.35;102230.38;5052790;28;20032;-84
2021/12/14 03:14:53;;;;;;;7.90;2.25;;;;;;;8.55;69.25;102215.66;5033063;28;20040;-84
2021/12/14 03:17:19;;;;;;;4.70;2.35;;;;;;;8.63;68.38;102203.63;5053877;28;20102;-84
2021/12/14 03:20:06;;;;;;;6.05;2.45;;;;;;;8.66;67.85;102190.72;5056522;28;20596;-85
2021/12/14 03:22:59;;;;;;;5.65;2.58;;;;;;;8.64;68.68;102187.25;5058543;28;20052;-85
2021/12/14 03:25:25;;;;;;;5.18;2.70;;;;;;;8.63;68.01;102191.56;5050377;28;20044;-84
2021/12/14 03:27:52;;;;;;;5.63;2.83;;;;;;;8.49;69.18;102185.38;5049877;28;20040;-84
2021/12/14 03:30:27;;;;;;;5.82;2.85;;;;;;;8.61;68.33;102176.84;5072226;28;20041;-85
2021/12/14 03:32:56;;;;;;;5.43;2.80;;;;;;;8.57;68.57;102175.06;5055926;28;20029;-84
2021/12/14 03:35:39;;;;;;;6.85;2.90;;;;;;;8.47;69.00;102176.72;5056139;28;20035;-85
2021/12/14 03:38:16;;;;;;;8.57;2.28;;;;;;;8.51;69.29;102180.19;5054306;28;20104;-84
2021/12/14 03:40:42;;;;;;;5.35;2.95;;;;;;;8.50;69.34;102188.84;5039926;28;20658;-84
2021/12/14 03:43:08;;;;;;;5.35;2.63;;;;;;;8.47;68.68;102192.28;5048063;28;20032;-84
2021/12/14 03:45:34;;;;;;;5.82;2.45;;;;;;;8.43;69.54;102190.50;5053154;28;20032;-84
2021/12/14 03:48:03;;;;;;;5.43;3.00;;;;;;;8.43;70.09;102198.25;5052524;28;20028;-84
2021/12/14 03:50:35;;;;;;;4.90;2.38;;;;;;;8.36;69.49;102187.81;5050378;28;20052;-84
2021/12/14 03:53:01;;;;;;;6.40;3.33;;;;;;;8.35;70.66;102194.72;5052614;28;20041;-84
2021/12/14 03:55:31;;;;;;;8.10;3.58;;;;;;;8.55;69.70;102176.78;5059800;28;20528;-84
2021/12/14 03:57:58;;;;;;;4.85;2.70;;;;;;;8.51;68.97;102167.25;5055263;28;20041;-84
2021/12/14 04:00:34;;;;;;;7.03;3.20;;;;;;;8.53;69.81;102176.78;5053201;28;20025;-84
2021/12/14 04:03:05;;;;;;;8.07;3.28;;;;;;;8.40;70.07;102184.41;5051818;28;20035;-84
2021/12/14 04:05:30;;;;;;;6.35;3.13;;;;;;;8.35;69.46;102192.13;5059600;28;20554;-85
2021/12/14 04:07:56;;;;;;;6.75;3.40;;;;;;;8.44;69.10;102183.59;5055477;28;20033;-84
2021/12/14 04:10:27;;;;;;;6.30;3.38;;;;;;;8.42;70.15;102170.63;5044428;28;20041;-84
2021/12/14 04:12:53;;;;;;;9.23;3.63;;;;;;;8.38;69.75;102184.41;5050774;28;20040;-84
2021/12/14 04:15:20;;;;;;;7.40;3.25;;;;;;;8.42;70.47;102177.50;5053222;28;20485;-84
2021/12/14 04:17:46;;;;;;;6.55;3.17;;;;;;;8.29;70.40;102181.69;5044117;28;20068;-84
2021/12/14 04:20:18;;;;;;;6.93;3.22;;;;;;;8.37;70.70;102176.59;5055035;28;20029;-84
2021/12/14 04:22:48;;;;;;;7.90;3.00;;;;;;;8.52;70.02;102171.59;5050598;28;20120;-85
2021/12/14 04:25:17;;;;;;;7.97;4.00;;;;;;;8.42;70.50;102169.75;5055878;28;20104;-84
2021/12/14 04:27:43;;;;;;;7.78;3.60;;;;;;;8.45;69.90;102187.91;5054889;28;20539;-84
2021/12/14 04:30:13;;;;;;;6.63;3.25;;;;;;;8.40;69.86;102189.59;5052649;28;20413;-84
2021/12/14 04:32:38;;;;;;;10.07;4.18;;;;;;;8.34;70.47;102203.34;5049873;28;20017;-84
2021/12/14 04:35:07;;;;;;;7.88;4.13;;;;;;;8.30;70.44;102206.69;5049597;28;20131;-84
2021/12/14 04:37:38;;;;;;;7.10;3.53;;;;;;;8.34;70.18;102216.28;5058563;28;20032;-84
2021/12/14 04:53:49;;;;;;;6.75;3.20;;;;;;;8.40;69.45;102208.59;5042558;28;20087;-85
2021/12/14 04:56:22;;;;;;;7.70;3.67;;;;;;;8.36;69.56;102209.38;5049571;28;20102;-85
2021/12/14 04:58:54;;;;;;;6.68;3.03;;;;;;;8.40;68.77;102198.22;5051311;28;20068;-84
2021/12/14 05:01:20;;;;;;;8.02;3.60;;;;;;;8.29;70.10;102201.53;5047047;28;20052;-84
2021/12/14 05:03:58;;;;;;;5.78;3.85;;;;;;;8.27;70.15;102216.19;5058700;28;20029;-84
2021/12/14 05:06:32;;;;;;;7.47;3.58;;;;;;;8.40;69.27;102220.66;5054923;28;20037;-84
2021/12/14 05:09:24;;;;;;;8.48;3.67;;;;;;;8.42;68.77;102219.81;5053411;28;20738;-84
2021/12/14 05:11:53;;;;;;;7.47;3.85;;;;;;;8.33;68.72;102222.31;5049859;28;20412;-84
2021/12/14 05:14:19;;;;;;;7.97;3.85;;;;;;;8.43;68.78;102223.28;5058508;28;20060;-84
2021/12/14 05:16:45;;;;;;;10.23;4.55;;;;;;;8.39;68.65;102235.31;5054784;28;20048;-84
2021/12/14 05:19:12;;;;;;;8.55;3.70;;;;;;;8.35;68.20;102224.94;5051226;28;20082;-84
2021/12/14 05:22:03;;;;;;;8.82;3.85;;;;;;;8.27;68.37;102232.56;5055303;28;20456;-84
2021/12/14 05:24:30;;;;;;;7.38;3.17;;;;;;;8.17;69.19;102239.38;5055593;28;20049;-84
2021/12/14 05:27:02;;;;;;;7.25;3.22;;;;;;;8.41;68.21;102236.22;5060494;28;20047;-84
2021/12/14 05:29:32;;;;;;;10.73;4.05;;;;;;;8.30;68.29;102240.34;5062536;28;20128;-84
2021/12/14 05:32:00;;;;;;;8.60;3.88;;;;;;;8.45;67.40;102244.88;5049872;28;20041;-85
2021/12/14 05:34:28;;;;;;;7.72;3.83;;;;;;;8.45;67.99;102237.09;5045489;28;20059;-84
2021/12/14 05:36:54;;;;;;;9.10;4.25;;;;;;;8.39;68.31;102231.84;5053087;28;20536;-85
2021/12/14 05:39:42;;;;;;;9.73;4.28;;;;;;;8.36;67.57;102231.81;5060753;28;20032;-84
2021/12/14 05:44:37;;;;;;;8.68;4.68;;;;;;;8.49;67.71;102219.03;5064856;28;20030;-84
2021/12/14 05:47:10;;;;;;;9.65;5.05;;;;;;;8.34;68.86;102223.19;5051415;28;20124;-85
2021/12/14 05:49:38;;;;;;;11.45;5.10;;;;;;;8.43;68.43;102238.81;5051113;28;20053;-85
2021/12/14 05:52:11;;;;;;;11.85;4.75;;;;;;;8.41;68.30;102237.94;5071952;28;20037;-85
2021/12/14 05:54:38;;;;;;;11.88;5.18;;;;;;;8.44;68.22;102241.44;5059820;28;20053;-84
2021/12/14 05:57:05;;;;;;;12.80;5.35;;;;;;;8.29;68.43;102241.22;5053054;28;20044;-84
2021/12/14 05:59:33;;;;;;;8.48;4.25;;;;;;;8.42;68.24;102242.25;5060104;28;20032;-84
2021/12/14 06:02:00;;;;;;;16.00;5.57;;;;;;;8.48;67.76;102250.97;5058370;28;20033;-84
2021/12/14 06:04:32;;;;;;;11.13;5.72;;;;;;;8.44;67.93;102240.56;5055427;28;20037;-85
2021/12/14 06:06:58;;;;;;;10.18;4.82;;;;;;;8.29;68.01;102241.22;5051880;28;20110;-84
2021/12/14 06:09:28;;;;;;;9.45;4.47;;;;;;;8.40;68.08;102238.78;5053424;28;20480;-84
2021/12/14 06:12:02;;;;;;;10.27;5.40;;;;;;;8.44;68.24;102233.66;5056706;28;20155;-84
2021/12/14 06:14:29;;;;;;;11.95;4.95;;;;;;;8.45;67.96;102239.69;5060664;28;20098;-85
2021/12/14 06:17:04;;;;;;;11.15;5.18;;;;;;;8.50;67.88;102240.63;5056153;28;20036;-85
2021/12/14 06:19:32;;;;;;;11.65;5.22;;;;;;;8.41;68.11;102230.19;5056290;28;20060;-85
2021/12/14 06:22:05;;;;;;;10.13;4.55;;;;;;;8.32;68.42;102228.31;5056060;28;20076;-84
2021/12/14 06:24:33;;;;;;;14.10;5.03;;;;;;;8.43;68.15;102226.75;5059057;28;20112;-84
2021/12/14 06:27:02;;;;;;;12.05;4.68;;;;;;;8.44;67.93;102232.81;5059583;28;20025;-84
2021/12/14 06:29:35;;;;;;;9.43;4.25;;;;;;;8.41;68.12;102232.75;5053135;28;20068;-85
2021/12/14 06:32:09;;;;;;;10.55;4.45;;;;;;;8.38;68.46;102233.59;5052527;28;20037;-85
2021/12/14 06:34:42;;;;;;;9.88;4.20;;;;;;;8.38;68.40;102225.84;5052901;28;20515;-85
2021/12/14 06:37:28;;;;;;;9.45;4.53;;;;;;;8.33;68.42;102227.47;5061134;28;20052;-85
2021/12/14 06:40:23;;;;;;;8.98;4.38;;;;;;;8.32;68.61;102228.31;5059097;28;20061;-85
2021/12/14 06:42:59;;;;;;;9.10;4.20;;;;;;;8.29;69.36;102228.28;5046803;28;20074;-85
2021/12/14 06:45:31;;;;;;;8.40;4.18;;;;;;;8.32;68.90;102230.91;5067721;28;20048;-85
2021/12/14 06:48:05;;;;;;;10.13;4.00;;;;;;;8.37;68.14;102241.34;5051623;28;20696;-84
2021/12/14 06:50:48;;;;;;;7.95;4.05;;;;;;;8.47;68.21;102248.38;5056960;28;20099;-84
2021/12/14 06:53:16;;;;;;;9.60;4.07;;;;;;;8.32;68.33;102253.34;5060760;28;20076;-84
2021/12/14 06:55:42;;;;;;;8.07;3.63;;;;;;;8.34;68.47;102260.28;5050416;28;20453;-85
2021/12/14 06:58:10;;;;;;;8.77;4.38;;;;;;;8.36;68.82;102258.59;5049939;28;20037;-84
2021/12/14 07:00:37;;;;;;;11.07;4.18;;;;;;;8.27;68.73;102252.41;5053164;28;20425;-85
2021/12/14 07:03:03;;;;;;;8.70;4.47;;;;;;;8.19;69.64;102263.53;5060605;28;20033;-84
2021/12/14 07:05:29;;;;;;;9.75;4.35;;;;;;;8.31;69.52;102255.03;5043369;28;20024;-85
2021/12/14 07:07:57;;;;;;;8.75;4.18;;;;;;;8.33;68.86;102260.22;5057484;28;20513;-84
2021/12/14 07:10:23;;;;;;;8.73;4.05;;;;;;;8.40;69.08;102251.72;5052649;28;20034;-84
2021/12/14 07:12:49;;;;;;;10.30;4.32;;;;;;;8.38;69.19;102264.69;5056741;28;20047;-85
2021/12/14 07:15:26;;;;;;;10.82;4.60;;;;;;;8.40;69.36;102267.25;5057459;28;20024;-84
2021/12/14 07:18:02;;;;;;;16.15;4.90;;;;;;;8.33;71.24;102265.41;5036916;28;20037;-84
2021/12/14 07:20:58;;;;;;;10.73;4.28;;;;;;;8.37;70.68;102269.81;5058371;28;20021;-85
2021/12/14 07:23:28;;;;;;;9.48;4.25;;;;;;;8.40;70.68;102281.09;5052829;28;20053;-85
2021/12/14 07:26:01;;;;;;;13.23;5.07;;;;;;;8.37;70.77;102286.22;5062959;28;20032;-85
2021/12/14 07:28:37;;;;;;;16.15;4.72;;;;;;;8.25;71.29;102292.09;5055266;28;20063;-85
2021/12/14 07:31:12;;;;;;;12.82;5.05;;;;;;;8.35;71.14;102292.25;5056903;28;20036;-85
2021/12/14 07:33:42;;;;;;;;;;;;;;;8.22;70.64;102294.63;5058491;28;20036;-85
2021/12/14 07:36:11;;;;;;;9.20;4.40;;;;;;;8.19;71.86;102304.94;5057212;28;20469;-84
2021/12/14 07:38:58;;;;;;;13.40;5.03;;;;;;;8.22;71.29;102305.00;5048907;28;20041;-85
2021/12/14 07:41:25;;;;;;;9.18;4.85;;;;;;;8.23;71.09;102316.22;5052777;28;20033;-85
2021/12/14 07:44:03;;;;;;;14.80;5.80;;;;;;;8.29;70.94;102320.59;5051845;28;20447;-85
2021/12/14 07:46:47;;;;;;;14.57;5.40;;;;;;;8.31;70.96;102314.59;5056103;28;20047;-85
2021/12/14 07:49:41;;;;;;;11.25;5.70;;;;;;;8.18;71.79;102313.56;5048020;28;20079;-85
2021/12/14 07:52:14;;;;;;;12.90;5.00;;;;;;;8.11;72.40;102316.06;5058358;28;20037;-85
2021/12/14 07:54:47;;;;;;;10.77;4.47;;;;;;;8.02;72.72;102310.75;5053094;28;20378;-85
2021/12/14 07:57:27;;;;;;;10.25;4.43;;;;;;;8.02;72.79;102316.81;5055686;28;20036;-84
2021/12/14 08:00:21;;;;;;;10.20;4.65;;;;;;;8.19;71.33;102320.50;5053486;28;20472;-84
2021/12/14 08:02:53;;;;;;;10.13;4.70;;;;;;;8.18;71.83;102320.44;5042529;28;20397;-85
2021/12/14 08:05:30;;;;;;;10.88;4.63;;;;;;;8.27;71.33;102337.84;5052717;28;20583;-85
2021/12/14 08:08:02;;;;;;;13.80;4.40;;;;;;;8.25;71.05;102338.69;5052679;28;20045;-85
2021/12/14 08:10:33;;;;;;;9.10;3.92;;;;;;;8.07;71.78;102343.59;5054514;28;20072;-85
2021/12/14 08:13:07;;;;;;;10.23;5.25;;;;;;;8.16;71.61;102348.91;5053657;28;20059;-85
2021/12/14 08:15:32;;;;;;;8.90;4.45;;;;;;;8.18;71.20;102354.09;5058677;28;20036;-84
2021/12/14 08:18:03;;;;;;;11.00;4.32;;;;;;;8.14;71.11;102363.56;5060360;28;20504;-84
2021/12/14 08:20:29;;;;;;;10.07;4.20;;;;;;;8.10;71.23;102363.47;5045559;28;20021;-85
2021/12/14 08:23:08;;;;;;;8.45;3.90;;;;;;;8.19;70.33;102359.31;5054674;28;20052;-85
2021/12/14 08:25:34;;;;;;;8.25;3.53;;;;;;;8.22;70.25;102361.94;5042517;28;20037;-85
2021/12/14 08:28:05;;;;;;;10.52;3.88;;;;;;;8.35;70.04;102359.56;5051356;28;20033;-84
2021/12/14 08:30:32;;;;;;;7.78;3.80;;;;;;;8.16;70.74;102361.84;5058943;28;20040;-85
2021/12/14 08:32:58;;;;;;;8.60;4.88;;;;;;;8.29;70.44;102354.25;5053474;28;20040;-84
2021/12/14 08:35:24;;;;;;;12.68;4.18;;;;;;;8.14;70.60;102365.28;5053432;28;20390;-85
2021/12/14 08:37:57;;;;;;;8.65;3.72;;;;;;;8.19;70.17;102363.63;5051389;28;20555;-85
2021/12/14 08:40:26;;;;;;;7.05;3.40;;;;;;;8.25;69.79;102368.88;5055703;28;20110;-85
2021/12/14 08:43:08;;;;;;;10.80;3.72;;;;;;;8.35;69.62;102360.44;5058147;28;20124;-85
2021/12/14 08:46:02;;;;;;;7.10;3.50;;;;;;;8.34;69.83;102356.09;5053411;28;20037;-85
2021/12/14 08:48:35;;;;;;;8.85;3.63;;;;;;;8.18;70.90;102361.88;5053295;28;20033;-85
2021/12/14 08:51:14;;;;;;;6.53;3.20;;;;;;;8.32;70.22;102365.53;5055743;28;20136;-84
2021/12/14 08:54:12;;;;;;;6.38;3.30;;;;;;;8.34;69.87;102353.50;5060947;28;20027;-84
2021/12/14 08:56:45;;;;;;;6.05;3.38;;;;;;;8.29;69.85;102341.31;5050340;28;20064;-85
2021/12/14 08:59:12;;;;;;;6.88;2.78;;;;;;;8.21;70.43;102357.59;5071271;28;20040;-85
2021/12/14 09:01:40;;;;;;;6.03;3.53;;;;;;;8.22;70.49;102364.53;5058947;28;20580;-85
2021/12/14 09:04:32;;;;;;;8.82;3.67;;;;;;;8.22;70.60;102376.59;5056342;28;20037;-85
2021/12/14 09:07:03;;;;;;;5.70;2.70;;;;;;;8.18;68.53;102378.28;5052852;28;20045;-85
2021/12/14 09:09:29;;;;;;;7.35;3.08;;;;;;;8.26;69.86;102378.41;5059884;28;20056;-84
2021/12/14 09:12:02;;;;;;;8.77;2.88;;;;;;;8.34;68.46;102374.22;5064229;28;20029;-83
2021/12/14 09:14:28;;;;;;;4.78;2.45;;;;;;;8.27;69.52;102372.34;5063981;28;20099;-85
2021/12/14 09:16:57;;;;;;;6.88;2.80;;;;;;;8.24;68.29;102364.53;5055817;28;20105;-85
2021/12/14 09:19:48;;;;;;;5.25;2.65;;;;;;;8.31;68.53;102363.78;5078694;28;20037;-84
2021/12/14 09:22:28;;;;;;;6.50;2.85;;;;;;;8.40;67.89;102373.44;5052360;28;20041;-85
2021/12/14 09:24:54;;;;;;;4.88;2.75;;;;;;;8.37;68.71;102366.50;5059476;28;20509;-85
2021/12/14 09:27:23;;;;;;;8.07;2.80;;;;;;;8.40;69.01;102370.84;5064073;28;20055;-85
2021/12/14 09:29:49;;;;;;;5.65;2.83;;;;;;;8.34;69.36;102363.00;5054504;28;20099;-85
2021/12/14 09:32:20;;;;;;;8.98;3.47;;;;;;;8.37;69.65;102361.31;5059535;28;20029;-85
2021/12/14 09:34:46;;;;;;;8.55;4.32;;;;;;;8.34;69.42;102363.88;5062194;28;20052;-85
2021/12/14 09:37:13;;;;;;;7.38;3.08;;;;;;;8.31;69.18;102370.69;5059676;28;20498;-85
2021/12/14 09:39:52;;;;;;;5.93;2.97;;;;;;;8.37;69.91;102363.03;5062837;28;20124;-84
2021/12/14 09:42:28;;;;;;;6.32;2.45;;;;;;;8.44;69.83;102362.28;5051655;28;20032;-85
2021/12/14 09:44:58;;;;;;;7.00;2.83;;;;;;;8.50;68.08;102367.53;5055767;28;20112;-84
2021/12/14 09:47:26;;;;;;;6.35;3.40;;;;;;;8.54;68.06;102357.22;5062365;28;20027;-85
2021/12/14 09:49:53;;;;;;;6.72;2.90;;;;;;;8.41;69.02;102360.53;5059522;28;20052;-85
2021/12/14 09:52:25;;;;;;;6.25;2.97;;;;;;;8.46;68.72;102369.22;5044987;28;20092;-85
2021/12/14 09:54:52;;;;;;;5.75;2.85;;;;;;;8.47;68.75;102372.69;5064650;28;20394;-84
2021/12/14 09:57:30;;;;;;;4.95;2.70;;;;;;;8.45;68.26;102372.63;5057970;28;20036;-85
2021/12/14 09:59:59;;;;;;;5.03;2.60;;;;;;;8.40;69.14;102376.03;5059050;28;20036;-84
2021/12/14 10:02:29;;;;;;;4.95;2.88;;;;;;;8.46;68.65;102373.50;5044889;28;20043;-85
2021/12/14 10:04:59;;;;;;;4.60;2.63;;;;;;;8.48;68.22;102371.81;5058116;28;20567;-85
2021/12/14 10:07:27;;;;;;;4.38;2.60;;;;;;;8.59;67.84;102367.66;5076984;28;20545;-85
2021/12/14 10:09:58;;;;;;;4.25;2.53;;;;;;;8.60;67.73;102374.56;5051862;28;20120;-85
2021/12/14 10:15:37;;;;;;;6.03;2.58;;;;;;;8.58;67.72;102371.09;5050518;28;20032;-84
2021/12/14 10:18:09;;;;;;;7.55;2.53;;;;;;;8.62;67.93;102376.31;5055987;28;20031;-84
2021/12/14 10:20:45;;;;;;;4.90;2.90;;;;;;;8.53;66.83;102365.88;5059444;28;20083;-85
2021/12/14 10:23:16;;;;;;;5.63;2.78;;;;;;;8.58;68.29;102368.50;5062096;28;20529;-85
2021/12/14 10:25:42;;;;;;;7.03;2.90;;;;;;;8.60;67.58;102366.78;5054363;28;20036;-84
2021/12/14 10:28:09;;;;;;;5.72;2.85;;;;;;;8.69;67.82;102369.50;5052992;28;20037;-85
2021/12/14 10:30:54;;;;;;;6.22;3.42;;;;;;;8.74;66.72;102368.69;5051147;28;20116;-84
2021/12/14 10:33:21;;;;;;;6.47;2.70;;;;;;;8.65;67.18;102363.41;5060413;28;20037;-84
2021/12/14 10:35:52;;;;;;;7.28;3.50;;;;;;;8.62;68.09;102365.94;5062833;28;20473;-84
2021/12/14 10:38:31;;;;;;;6.30;3.13;;;;;;;8.72;66.74;102365.22;5052300;28;20117;-85
2021/12/14 10:43:54;;;;;;;6.57;2.97;;;;;;;8.66;66.65;102374.63;5054062;28;20655;-85
2021/12/14 10:46:27;;;;;;;4.40;2.65;;;;;;;8.68;67.61;102381.56;5064877;28;20168;-85
2021/12/14 10:48:55;;;;;;;6.68;2.90;;;;;;;8.76;66.36;102381.69;5051339;28;20121;-84
2021/12/14 10:51:28;;;;;;;5.65;2.97;;;;;;;8.71;66.98;102383.34;5044535;28;20044;-84
2021/12/14 10:53:56;;;;;;;5.72;3.30;;;;;;;8.74;67.51;102385.97;5048534;28;20401;-84
2021/12/14 10:56:27;;;;;;;7.15;3.58;;;;;;;8.73;67.14;102384.22;5051999;28;20037;-85
2021/12/14 10:58:56;;;;;;;7.18;3.47;;;;;;;8.71;66.67;102385.94;5058227;28;20056;-85
2021/12/14 11:01:29;;;;;;;6.10;3.28;;;;;;;8.74;66.95;102373.03;5054385;28;20067;-85
2021/12/14 11:04:02;;;;;;;5.88;3.30;;;;;;;8.74;66.37;102373.88;5053588;28;20041;-84
2021/12/14 11:06:31;;;;;;;4.30;2.95;;;;;;;8.59;66.80;102367.66;5059773;28;20061;-84
2021/12/14 11:11:33;;;;;;;5.40;2.97;;;;;;;8.64;65.62;102363.38;5056740;28;20028;-85
2021/12/14 11:14:02;;;;;;;5.90;2.95;;;;;;;8.74;66.51;102373.88;5053774;28;20516;-84
2021/12/14 11:19:40;;;;;;;6.82;2.90;;;;;;;8.77;66.20;102363.53;5051801;28;20623;-85
2021/12/14 11:22:17;;;;;;;6.03;3.05;;;;;;;8.78;66.11;102372.19;5058338;28;20048;-85
2021/12/14 11:24:47;;;;;;;8.50;3.67;;;;;;;8.73;66.42;102358.31;5052062;28;20056;-85
2021/12/14 11:27:13;;;;;;;6.15;3.47;;;;;;;8.85;65.74;102352.41;5050673;28;20029;-84
2021/12/14 11:29:38;;;;;;;7.88;3.65;;;;;;;8.68;66.03;102360.84;5059381;28;20028;-85
2021/12/14 11:32:04;;;;;;;6.80;3.58;;;;;;;8.73;67.09;102359.19;5058922;28;20052;-85
2021/12/14 11:34:35;;;;;;;8.52;3.42;;;;;;;8.79;67.44;102348.03;5051719;28;20032;-85
2021/12/14 11:37:08;;;;;;;4.82;2.78;;;;;;;8.75;67.39;102351.44;5050917;28;20036;-85
2021/12/14 11:39:41;;;;;;;7.57;3.33;;;;;;;8.68;67.17;102352.22;5054026;28;20060;-84
2021/12/14 11:42:19;;;;;;;6.85;3.13;;;;;;;8.73;67.68;102353.16;5047656;28;20147;-84
2021/12/14 11:45:12;;;;;;;7.45;3.17;;;;;;;8.78;67.37;102351.47;5055421;28;20478;-85
2021/12/14 11:47:46;;;;;;;6.63;3.55;;;;;;;8.75;66.67;102343.66;5047977;28;20141;-85
2021/12/14 11:50:24;;;;;;;5.07;3.08;;;;;;;8.76;66.19;102338.50;5050651;28;20033;-85
2021/12/14 11:53:00;;;;;;;4.78;2.72;;;;;;;8.78;66.36;102341.09;5054887;28;20037;-85
2021/12/14 11:55:28;;;;;;;7.18;3.25;;;;;;;8.73;66.18;102342.78;5054710;28;20040;-85
2021/12/14 11:58:30;;;;;;;7.22;3.30;;;;;;;8.78;66.30;102339.38;5056402;28;20261;-85
2021/12/14 12:01:27;;;;;;;8.88;3.40;;;;;;;8.76;67.40;102341.09;5017017;28;20029;-85
2021/12/14 12:04:13;;;;;;;7.50;3.53;;;;;;;8.83;66.66;102330.81;5052351;28;20037;-85
2021/12/14 12:09:39;;;;;;;8.52;3.95;;;;;;;8.76;66.93;102341.09;5052906;28;20098;-84
2021/12/14 12:12:05;;;;;;;7.43;3.58;;;;;;;8.83;67.00;102338.56;5055106;28;20036;-84
2021/12/14 12:14:36;;;;;;;7.88;3.60;;;;;;;8.83;66.71;102336.00;5050330;28;20025;-85
2021/12/14 12:17:11;;;;;;;7.18;3.60;;;;;;;8.78;66.30;102336.78;5051556;28;20041;-85
2021/12/14 12:19:38;;;;;;;8.15;3.92;;;;;;;8.79;66.79;102341.13;5058956;28;20039;-85
2021/12/14 12:22:11;;;;;;;6.85;3.83;;;;;;;8.81;66.47;102341.13;5046828;28;20090;-85
2021/12/14 12:24:45;;;;;;;6.20;3.03;;;;;;;8.74;66.41;102341.94;5033338;28;20055;-85
2021/12/14 12:27:18;;;;;;;5.70;3.47;;;;;;;8.82;66.01;102337.69;5058788;28;20124;-85
2021/12/14 12:29:43;;;;;;;8.45;3.17;;;;;;;8.75;66.17;102338.47;5063417;28;20033;-85
2021/12/14 12:32:19;;;;;;;7.03;3.22;;;;;;;8.74;66.13;102334.16;5050408;28;20082;-85
2021/12/14 12:34:47;;;;;;;7.57;3.67;;;;;;;8.79;67.35;102340.25;5048051;28;20423;-85
2021/12/14 12:37:14;;;;;;;7.55;4.20;;;;;;;8.79;65.69;102335.94;5050659;28;20375;-85
2021/12/14 12:39:47;;;;;;;6.30;3.53;;;;;;;8.86;65.72;102339.47;5059525;28;20037;-84